createdAt,value
2022-11-15T00:01:19.067Z,6.71
2022-11-15T00:03:47.669Z,6.64
2022-11-15T00:06:15.739Z,6.70
2022-11-15T00:08:43.605Z,6.69
2022-11-15T00:11:13.378Z,6.73
2022-11-15T00:13:41.351Z,6.69
2022-11-15T00:16:11.469Z,6.72
2022-11-15T00:18:39.732Z,6.72
2022-11-15T00:21:09.613Z,6.75
2022-11-15T00:23:38.253Z,6.65
2022-11-15T00:26:06.375Z,6.70
2022-11-15T00:28:34.187Z,6.69
2022-11-15T00:31:03.162Z,6.64
2022-11-15T00:33:33.384Z,6.61
2022-11-15T00:36:06.128Z,6.70
2022-11-15T00:38:35.068Z,6.65
2022-11-15T00:41:09.119Z,6.68
2022-11-15T00:43:37.656Z,6.68
2022-11-15T00:46:05.624Z,6.67
2022-11-15T00:48:34.924Z,6.65
2022-11-15T00:51:03.389Z,6.61
2022-11-15T00:53:31.537Z,6.65
2022-11-15T00:55:59.580Z,6.68
2022-11-15T00:58:27.446Z,6.58
2022-11-15T01:00:55.857Z,6.58
2022-11-15T01:03:23.855Z,6.55
2022-11-15T01:05:53.149Z,6.50
2022-11-15T01:08:21.071Z,6.55
2022-11-15T01:10:48.945Z,6.42
2022-11-15T01:13:16.784Z,6.46
2022-11-15T01:15:45.281Z,6.42
2022-11-15T01:18:13.174Z,6.45
2022-11-15T01:20:42.980Z,6.37
2022-11-15T01:23:12.372Z,6.42
2022-11-15T01:25:40.270Z,6.41
2022-11-15T01:28:08.356Z,6.43
2022-11-15T01:30:37.655Z,6.34
2022-11-15T01:33:05.567Z,6.42
2022-11-15T01:35:33.743Z,6.36
2022-11-15T01:38:01.504Z,6.33
2022-11-15T01:40:30.625Z,6.40
2022-11-15T01:42:58.488Z,6.33
2022-11-15T01:45:26.898Z,6.24
2022-11-15T01:47:57.177Z,6.24
2022-11-15T01:50:29.193Z,6.31
2022-11-15T01:52:57.513Z,6.25
2022-11-15T01:55:30.374Z,6.26
2022-11-15T01:58:03.922Z,6.26
2022-11-15T02:00:32.497Z,6.20
2022-11-15T02:03:00.411Z,6.23
2022-11-15T02:05:28.366Z,6.18
2022-11-15T02:07:56.736Z,6.16
2022-11-15T02:10:26.267Z,6.22
2022-11-15T02:12:55.647Z,6.16
2022-11-15T02:15:28.707Z,6.19
2022-11-15T02:18:11.675Z,6.09
2022-11-15T02:20:59.102Z,6.11
2022-11-15T02:24:00.494Z,6.05
2022-11-15T02:27:03.401Z,6.06
2022-11-15T02:29:46.817Z,6.01
2022-11-15T02:32:22.571Z,5.97
2022-11-15T02:34:56.971Z,5.91
2022-11-15T02:37:33.700Z,5.97
2022-11-15T02:40:09.117Z,5.97
2022-11-15T02:43:02.114Z,5.89
2022-11-15T02:45:37.690Z,5.86
2022-11-15T02:48:09.539Z,5.91
2022-11-15T02:50:37.547Z,5.92
2022-11-15T02:53:05.279Z,5.90
2022-11-15T02:55:35.476Z,5.86
2022-11-15T02:58:34.388Z,5.85
2022-11-15T03:01:10.857Z,5.76
2022-11-15T03:03:54.720Z,5.80
2022-11-15T03:06:34.297Z,5.76
2022-11-15T03:09:08.431Z,5.74
2022-11-15T03:11:41.738Z,5.72
2022-11-15T03:14:20.958Z,5.71
2022-11-15T03:16:53.992Z,5.73
2022-11-15T03:19:31.116Z,5.68
2022-11-15T03:22:02.051Z,5.71
2022-11-15T03:24:32.668Z,5.45
2022-11-15T03:27:06.037Z,5.66
2022-11-15T03:29:38.274Z,5.67
2022-11-15T03:32:11.519Z,5.70
2022-11-15T03:34:44.350Z,5.73
2022-11-15T03:37:16.186Z,5.72
2022-11-15T03:39:44.984Z,5.74
2022-11-15T03:42:22.085Z,5.68
2022-11-15T03:44:57.139Z,5.66
2022-11-15T03:47:30.439Z,5.67
2022-11-15T03:50:04.193Z,5.68
2022-11-15T03:52:35.349Z,5.67
2022-11-15T03:55:06.138Z,5.62
2022-11-15T03:57:34.012Z,5.62
2022-11-15T04:00:02.019Z,5.64
2022-11-15T04:02:30.323Z,5.66
2022-11-15T04:04:59.429Z,5.65
2022-11-15T04:07:27.500Z,5.63
2022-11-15T04:10:04.485Z,5.66
2022-11-15T04:12:32.768Z,5.52
2022-11-15T04:15:09.082Z,5.58
2022-11-15T04:17:38.639Z,5.55
2022-11-15T04:20:23.756Z,5.50
2022-11-15T04:23:12.192Z,5.54
2022-11-15T04:25:40.335Z,5.53
2022-11-15T04:28:08.495Z,5.54
2022-11-15T04:30:36.318Z,5.56
2022-11-15T04:33:04.253Z,5.58
2022-11-15T04:35:33.496Z,5.51
2022-11-15T04:38:01.223Z,5.49
2022-11-15T04:40:29.042Z,5.60
2022-11-15T04:43:03.419Z,5.60
2022-11-15T04:45:32.669Z,5.54
2022-11-15T04:48:00.458Z,5.56
2022-11-15T04:50:28.267Z,5.60
2022-11-15T04:52:57.669Z,5.61
2022-11-15T04:55:25.509Z,5.58
2022-11-15T04:58:00.834Z,5.59
2022-11-15T05:00:29.317Z,5.66
2022-11-15T05:03:15.082Z,5.60
2022-11-15T05:05:43.019Z,5.70
2022-11-15T05:08:12.157Z,5.63
2022-11-15T05:10:40.061Z,5.58
2022-11-15T05:13:07.902Z,5.66
2022-11-15T05:15:35.712Z,5.65
2022-11-15T05:18:03.532Z,5.66
2022-11-15T05:20:31.275Z,5.70
2022-11-15T05:22:59.017Z,5.71
2022-11-15T05:25:28.803Z,5.67
2022-11-15T05:27:56.714Z,5.60
2022-11-15T05:30:24.745Z,5.54
2022-11-15T05:32:52.831Z,5.56
2022-11-15T05:35:26.440Z,5.60
2022-11-15T05:37:54.415Z,5.59
2022-11-15T05:40:22.168Z,5.62
2022-11-15T05:42:52.141Z,5.59
2022-11-15T05:45:26.392Z,5.60
2022-11-15T05:47:58.055Z,5.58
2022-11-15T05:50:26.172Z,5.60
2022-11-15T05:52:54.186Z,5.67
2022-11-15T05:55:22.325Z,5.63
2022-11-15T05:57:51.655Z,5.60
2022-11-15T06:00:20.368Z,5.65
2022-11-15T06:02:48.201Z,5.67
2022-11-15T06:05:16.184Z,5.67
2022-11-15T06:07:45.160Z,5.65
2022-11-15T06:10:13.310Z,5.72
2022-11-15T06:12:41.184Z,5.75
2022-11-15T06:15:11.253Z,5.74
2022-11-15T06:17:39.065Z,5.77
2022-11-15T06:20:07.741Z,5.82
2022-11-15T06:22:35.501Z,5.86
2022-11-15T06:25:07.950Z,5.87
2022-11-15T06:27:35.744Z,5.81
2022-11-15T06:30:03.620Z,5.77
2022-11-15T06:32:32.785Z,5.86
2022-11-15T06:35:00.631Z,5.86
2022-11-15T06:37:28.417Z,5.86
2022-11-15T06:39:56.267Z,5.93
2022-11-15T06:42:24.244Z,5.95
2022-11-15T06:44:52.187Z,5.95
2022-11-15T06:47:19.983Z,5.99
2022-11-15T06:49:49.120Z,5.93
2022-11-15T06:52:19.488Z,5.88
2022-11-15T06:54:47.634Z,5.93
2022-11-15T06:57:15.428Z,5.97
2022-11-15T06:59:44.030Z,5.90
2022-11-15T07:02:14.712Z,5.83
2022-11-15T07:04:42.913Z,5.82
2022-11-15T07:07:12.255Z,5.80
2022-11-15T07:09:40.170Z,5.76
2022-11-15T07:12:08.243Z,5.74
2022-11-15T07:14:36.313Z,5.78
2022-11-15T07:17:05.816Z,5.75
2022-11-15T07:19:33.738Z,5.79
2022-11-15T07:22:02.868Z,5.83
2022-11-15T07:24:32.163Z,5.82
2022-11-15T07:27:00.025Z,5.89
2022-11-15T07:29:28.070Z,5.82
2022-11-15T07:31:56.375Z,5.79
2022-11-15T07:34:24.745Z,5.78
2022-11-15T07:36:52.611Z,5.70
2022-11-15T07:39:20.407Z,5.55
2022-11-15T07:41:50.468Z,5.46
2022-11-15T07:44:18.316Z,5.55
2022-11-15T07:46:46.126Z,5.60
2022-11-15T07:49:14.035Z,5.75
2022-11-15T07:51:41.835Z,5.79
2022-11-15T07:54:09.580Z,5.85
2022-11-15T07:56:37.398Z,5.93
2022-11-15T07:59:06.548Z,6.06
2022-11-15T08:01:34.378Z,6.05
2022-11-15T08:04:02.289Z,6.16
2022-11-15T08:06:30.334Z,6.20
2022-11-15T08:08:58.078Z,6.26
2022-11-15T08:11:26.081Z,6.35
2022-11-15T08:13:53.830Z,6.44
2022-11-15T08:16:23.139Z,6.47
2022-11-15T08:18:51.054Z,6.41
2022-11-15T08:21:21.185Z,6.23
2022-11-15T08:23:49.216Z,6.08
2022-11-15T08:26:17.544Z,6.00
2022-11-15T08:28:45.904Z,6.04
2022-11-15T08:31:17.822Z,6.14
2022-11-15T08:33:47.589Z,6.26
2022-11-15T08:36:17.782Z,6.33
2022-11-15T08:38:45.742Z,6.38
2022-11-15T08:41:15.813Z,6.49
2022-11-15T08:43:43.629Z,6.58
2022-11-15T08:46:14.661Z,6.67
2022-11-15T08:48:42.639Z,6.73
2022-11-15T08:51:11.941Z,6.86
2022-11-15T08:53:39.882Z,6.85
2022-11-15T08:56:09.965Z,6.88
2022-11-15T08:58:38.090Z,6.97
2022-11-15T09:01:06.853Z,6.93
2022-11-15T09:03:34.738Z,6.93
2022-11-15T09:06:03.196Z,6.96
2022-11-15T09:08:47.084Z,7.01
2022-11-15T09:11:17.472Z,6.96
2022-11-15T09:13:45.304Z,6.96
2022-11-15T09:16:13.750Z,6.97
2022-11-15T09:18:41.652Z,6.99
2022-11-15T09:21:10.682Z,7.00
2022-11-15T09:23:40.305Z,7.11
2022-11-15T09:26:08.760Z,7.17
2022-11-15T09:28:37.734Z,7.15
2022-11-15T09:31:07.689Z,7.09
2022-11-15T09:33:35.961Z,7.11
2022-11-15T09:36:06.406Z,7.02
2022-11-15T09:38:35.249Z,6.93
2022-11-15T09:41:39.610Z,7.03
2022-11-15T09:44:25.670Z,6.98
2022-11-15T09:47:22.296Z,7.09
2022-11-15T09:49:57.894Z,7.04
2022-11-15T09:52:26.737Z,6.96
2022-11-15T09:54:56.345Z,6.86
2022-11-15T09:57:33.450Z,6.86
2022-11-15T10:03:14.999Z,6.97
2022-11-15T10:05:45.469Z,7.08
2022-11-15T10:08:42.121Z,7.15
2022-11-15T10:14:04.749Z,7.45
2022-11-15T10:17:11.774Z,7.68
2022-11-15T10:19:49.782Z,8.00
2022-11-15T10:22:26.718Z,8.10
2022-11-15T10:25:12.055Z,8.06
2022-11-15T10:27:42.248Z,8.03
2022-11-15T10:30:16.939Z,7.85
2022-11-15T10:32:46.955Z,7.96
2022-11-15T10:35:24.983Z,8.05
2022-11-15T10:37:53.523Z,8.00
2022-11-15T10:40:24.295Z,8.01
2022-11-15T10:43:07.988Z,7.97
2022-11-15T10:45:38.188Z,7.82
2022-11-15T10:48:27.243Z,7.81
2022-11-15T10:50:57.014Z,7.76
2022-11-15T10:53:31.652Z,7.60
2022-11-15T10:56:04.291Z,7.65
2022-11-15T10:58:41.942Z,7.64
2022-11-15T11:01:18.106Z,7.87
2022-11-15T11:03:47.287Z,7.92
2022-11-15T11:06:17.311Z,7.92
2022-11-15T11:08:57.360Z,7.80
2022-11-15T11:11:25.768Z,7.55
2022-11-15T11:13:54.452Z,7.47
2022-11-15T11:16:50.712Z,7.44
2022-11-15T11:19:46.717Z,7.33
2022-11-15T11:22:21.792Z,7.28
2022-11-15T11:24:59.309Z,7.32
2022-11-15T11:27:39.285Z,7.30
2022-11-15T11:30:17.176Z,7.26
2022-11-15T11:33:07.903Z,7.24
2022-11-15T11:35:46.314Z,7.12
2022-11-15T11:38:26.148Z,7.11
2022-11-15T11:41:04.785Z,7.18
2022-11-15T11:43:41.894Z,7.20
2022-11-15T11:46:38.206Z,7.19
2022-11-15T11:49:11.935Z,7.26
2022-11-15T11:51:44.173Z,7.30
2022-11-15T11:54:16.450Z,7.39
2022-11-15T11:56:46.564Z,7.28
2022-11-15T11:59:23.432Z,7.31
2022-11-15T12:01:52.939Z,7.17
2022-11-15T12:04:28.047Z,7.19
2022-11-15T12:07:01.703Z,7.23
2022-11-15T12:09:34.589Z,7.30
2022-11-15T12:12:08.785Z,7.34
2022-11-15T12:14:44.710Z,7.30
2022-11-15T12:17:13.626Z,7.01
2022-11-15T12:19:43.880Z,6.91
2022-11-15T12:22:18.803Z,6.97
2022-11-15T12:24:52.463Z,6.98
2022-11-15T12:27:28.847Z,6.95
2022-11-15T12:30:00.797Z,7.01
2022-11-15T12:32:31.607Z,7.00
2022-11-15T12:35:02.328Z,7.03
2022-11-15T12:37:50.263Z,6.93
2022-11-15T12:40:25.381Z,7.05
2022-11-15T12:43:28.137Z,7.01
2022-11-15T12:45:56.016Z,7.02
2022-11-15T12:48:53.418Z,6.99
2022-11-15T12:52:09.497Z,6.91
2022-11-15T12:54:58.145Z,6.86
2022-11-15T12:57:41.030Z,6.79
2022-11-15T13:00:45.905Z,6.81
2022-11-15T13:03:34.799Z,6.84
2022-11-15T13:06:31.154Z,6.78
2022-11-15T13:09:00.608Z,6.79
2022-11-15T13:11:53.611Z,6.76
2022-11-15T13:14:51.782Z,6.79
2022-11-15T13:17:29.125Z,6.67
2022-11-15T13:20:04.834Z,6.63
2022-11-15T13:22:55.574Z,6.70
2022-11-15T13:25:42.776Z,6.61
2022-11-15T13:28:20.967Z,6.52
2022-11-15T13:30:53.984Z,6.52
2022-11-15T13:33:25.062Z,6.48
2022-11-15T13:35:56.993Z,6.47
2022-11-15T13:38:30.267Z,6.41
2022-11-15T13:41:01.441Z,6.34
2022-11-15T13:43:37.640Z,6.28
2022-11-15T13:46:12.860Z,6.21
2022-11-15T13:48:41.451Z,6.13
2022-11-15T13:51:21.499Z,6.10
2022-11-15T13:53:54.439Z,5.97
2022-11-15T13:56:24.180Z,5.92
2022-11-15T13:58:52.420Z,5.87
2022-11-15T14:01:23.513Z,5.74
2022-11-15T14:03:59.391Z,5.83
2022-11-15T14:06:29.439Z,5.70
2022-11-15T14:09:04.932Z,5.69
2022-11-15T14:11:34.435Z,5.72
2022-11-15T14:14:14.970Z,5.75
2022-11-15T14:16:44.656Z,5.78
2022-11-15T14:19:14.480Z,5.71
2022-11-15T14:22:16.957Z,5.71
2022-11-15T14:24:47.346Z,5.69
2022-11-15T14:27:28.210Z,5.66
2022-11-15T14:29:56.260Z,5.63
2022-11-15T14:32:27.342Z,5.61
2022-11-15T14:34:57.937Z,5.55
2022-11-15T14:37:27.709Z,5.50
2022-11-15T14:39:56.749Z,5.48
2022-11-15T14:42:26.516Z,5.55
2022-11-15T14:44:54.385Z,5.58
2022-11-15T14:47:22.655Z,5.50
2022-11-15T14:49:50.697Z,5.49
2022-11-15T14:52:36.604Z,5.55
2022-11-15T14:55:12.347Z,5.44
2022-11-15T14:57:41.899Z,5.48
2022-11-15T15:00:10.982Z,5.52
2022-11-15T15:02:39.210Z,5.44
2022-11-15T15:05:16.393Z,5.43
2022-11-15T15:07:44.841Z,5.45
2022-11-15T15:13:03.081Z,5.46
2022-11-15T15:15:35.349Z,5.49
2022-11-15T15:18:03.570Z,5.47
2022-11-15T15:20:31.696Z,5.51
2022-11-15T15:22:59.627Z,5.48
2022-11-15T15:25:34.775Z,5.40
2022-11-15T15:28:04.526Z,5.36
2022-11-15T15:30:32.991Z,5.41
2022-11-15T15:33:01.445Z,5.34
2022-11-15T15:35:33.983Z,5.31
2022-11-15T15:38:02.250Z,5.32
2022-11-15T15:40:31.987Z,5.23
2022-11-15T15:43:00.368Z,5.17
2022-11-15T15:45:30.648Z,5.28
2022-11-15T15:47:58.612Z,5.29
2022-11-15T15:50:28.174Z,5.32
2022-11-15T15:52:58.524Z,5.29
2022-11-15T15:55:27.543Z,5.19
2022-11-15T15:57:55.985Z,5.21
2022-11-15T16:00:26.002Z,5.24
2022-11-15T16:02:55.779Z,5.31
2022-11-15T16:05:24.003Z,5.29
2022-11-15T16:07:52.266Z,5.34
2022-11-15T16:10:23.707Z,5.33
2022-11-15T16:12:51.919Z,5.35
2022-11-15T16:15:20.481Z,5.31
2022-11-15T16:17:52.166Z,5.27
2022-11-15T16:20:33.524Z,5.31
2022-11-15T16:23:09.001Z,5.37
2022-11-15T16:25:44.202Z,5.32
2022-11-15T16:28:23.555Z,5.33
2022-11-15T16:31:00.914Z,5.36
2022-11-15T16:33:29.047Z,5.38
2022-11-15T16:35:58.388Z,5.27
2022-11-15T16:38:26.113Z,5.34
2022-11-15T16:40:53.958Z,5.34
2022-11-15T16:43:21.810Z,5.39
2022-11-15T16:45:51.205Z,5.29
2022-11-15T16:48:25.196Z,5.37
2022-11-15T16:50:57.099Z,5.39
2022-11-15T16:53:26.955Z,5.33
2022-11-15T16:55:55.686Z,5.29
2022-11-15T16:58:23.663Z,5.34
2022-11-15T17:00:53.163Z,5.26
2022-11-15T17:03:21.739Z,5.33
2022-11-15T17:05:49.613Z,5.33
2022-11-15T17:08:17.467Z,5.33
2022-11-15T17:10:46.656Z,5.33
2022-11-15T17:13:15.233Z,5.35
2022-11-15T17:15:43.294Z,5.35
2022-11-15T17:18:14.150Z,5.32
2022-11-15T17:20:42.835Z,5.26
2022-11-15T17:23:14.995Z,5.28
2022-11-15T17:25:43.367Z,5.27
2022-11-15T17:28:12.946Z,5.31
2022-11-15T17:30:43.284Z,5.31
2022-11-15T17:33:11.514Z,5.28
2022-11-15T17:35:39.266Z,5.32
2022-11-15T17:38:07.173Z,5.29
2022-11-15T17:40:35.008Z,5.23
2022-11-15T17:43:03.183Z,5.25
2022-11-15T17:45:32.575Z,5.22
2022-11-15T17:48:00.358Z,5.25
2022-11-15T17:50:28.539Z,5.32
2022-11-15T17:52:57.373Z,5.30
2022-11-15T17:55:25.332Z,5.22
2022-11-15T17:57:53.131Z,5.21
2022-11-15T18:00:21.842Z,5.24
2022-11-15T18:02:51.061Z,5.29
2022-11-15T18:05:19.600Z,5.36
2022-11-15T18:07:48.094Z,5.36
2022-11-15T18:10:16.367Z,5.36
2022-11-15T18:12:44.140Z,5.33
2022-11-15T18:15:12.010Z,5.33
2022-11-15T18:17:39.990Z,5.38
2022-11-15T18:20:10.139Z,5.35
2022-11-15T18:22:38.165Z,5.35
2022-11-15T18:25:06.952Z,5.24
2022-11-15T18:27:35.191Z,5.25
2022-11-15T18:30:03.101Z,5.27
2022-11-15T18:32:30.888Z,5.27
2022-11-15T18:34:58.814Z,5.28
2022-11-15T18:37:28.164Z,5.26
2022-11-15T18:39:56.598Z,5.22
2022-11-15T18:42:24.659Z,5.15
2022-11-15T18:44:52.464Z,5.21
2022-11-15T18:47:20.250Z,5.20
2022-11-15T18:49:48.215Z,5.15
2022-11-15T18:52:16.050Z,5.09
2022-11-15T18:54:45.431Z,5.13
2022-11-15T18:57:13.246Z,5.13
2022-11-15T18:59:41.110Z,5.15
2022-11-15T19:02:12.301Z,5.19
2022-11-15T19:04:40.647Z,5.11
2022-11-15T19:07:08.504Z,5.13
2022-11-15T19:09:36.439Z,5.06
2022-11-15T19:12:06.414Z,5.08
2022-11-15T19:14:34.226Z,5.12
2022-11-15T19:17:02.029Z,5.09
2022-11-15T19:19:29.920Z,5.14
2022-11-15T19:21:58.358Z,5.16
2022-11-15T19:24:27.297Z,5.18
2022-11-15T19:26:55.885Z,5.19
2022-11-15T19:29:25.234Z,5.18
2022-11-15T19:31:53.043Z,5.16
2022-11-15T19:34:20.943Z,5.13
2022-11-15T19:36:48.959Z,5.14
2022-11-15T19:39:18.493Z,5.08
2022-11-15T19:41:46.868Z,5.08
2022-11-15T19:44:15.310Z,5.07
2022-11-15T19:46:45.310Z,5.05
2022-11-15T19:49:13.207Z,4.98
2022-11-15T19:51:45.228Z,5.01
2022-11-15T19:54:13.639Z,5.01
2022-11-15T19:56:41.479Z,4.97
2022-11-15T19:59:11.583Z,5.00
2022-11-15T20:01:39.866Z,5.06
2022-11-15T20:04:10.837Z,5.03
2022-11-15T20:06:40.516Z,5.01
2022-11-15T20:09:08.422Z,5.03
2022-11-15T20:11:38.223Z,5.02
2022-11-15T20:14:06.831Z,5.02
2022-11-15T20:16:34.776Z,5.02
2022-11-15T20:19:02.962Z,4.84
2022-11-15T20:21:32.538Z,4.95
2022-11-15T20:24:00.510Z,4.92
2022-11-15T20:26:29.165Z,4.86
2022-11-15T20:29:01.244Z,4.80
2022-11-15T20:31:29.748Z,4.79
2022-11-15T20:33:57.568Z,4.83
2022-11-15T20:36:25.433Z,4.76
2022-11-15T20:38:57.671Z,4.79
2022-11-15T20:41:25.549Z,4.74
2022-11-15T20:43:53.648Z,4.67
2022-11-15T20:46:21.635Z,4.62
2022-11-15T20:48:49.449Z,4.62
2022-11-15T20:51:19.354Z,4.54
2022-11-15T20:53:48.422Z,4.54
2022-11-15T20:56:19.822Z,4.58
2022-11-15T20:58:50.192Z,4.69
2022-11-15T21:01:23.925Z,4.62
2022-11-15T21:03:52.962Z,4.70
2022-11-15T21:06:21.259Z,4.72
2022-11-15T21:09:07.882Z,4.68
2022-11-15T21:11:54.938Z,4.79
2022-11-15T21:14:23.340Z,4.78
2022-11-15T21:16:51.281Z,4.75
2022-11-15T21:19:22.749Z,4.65
2022-11-15T21:21:55.114Z,4.66
2022-11-15T21:24:24.632Z,4.69
2022-11-15T21:26:54.639Z,4.75
2022-11-15T21:29:23.113Z,4.72
2022-11-15T21:31:52.883Z,4.71
2022-11-15T21:34:21.502Z,4.65
2022-11-15T21:36:49.348Z,4.62
2022-11-15T21:39:17.391Z,4.60
2022-11-15T21:41:45.322Z,4.61
2022-11-15T21:44:14.804Z,4.61
2022-11-15T21:46:42.829Z,4.61
2022-11-15T21:49:10.966Z,4.58
2022-11-15T21:51:39.200Z,4.58
2022-11-15T21:54:07.199Z,4.54
2022-11-15T21:56:35.213Z,4.59
2022-11-15T21:59:03.127Z,4.59
2022-11-15T22:01:49.983Z,4.60
2022-11-15T22:04:18.687Z,4.59
2022-11-15T22:06:46.726Z,4.58
2022-11-15T22:09:14.666Z,4.62
2022-11-15T22:11:43.168Z,4.56
2022-11-15T22:14:11.268Z,4.62
2022-11-15T22:16:40.633Z,4.52
2022-11-15T22:19:08.905Z,4.52
2022-11-15T22:21:38.059Z,4.54
2022-11-15T22:24:06.825Z,4.52
2022-11-15T22:26:34.627Z,4.56
2022-11-15T22:29:02.841Z,4.61
2022-11-15T22:31:30.702Z,4.58
2022-11-15T22:33:59.892Z,4.54
2022-11-15T22:36:38.655Z,4.52
2022-11-15T22:39:15.088Z,4.55
2022-11-15T22:41:44.185Z,4.54
2022-11-15T22:44:12.061Z,4.49
2022-11-15T22:46:41.013Z,4.49
2022-11-15T22:49:10.360Z,4.51
2022-11-15T22:51:40.466Z,4.47
2022-11-15T22:54:08.629Z,4.40
2022-11-15T22:56:36.471Z,4.50
2022-11-15T22:59:04.323Z,4.48
2022-11-15T23:01:32.210Z,4.46
2022-11-15T23:04:00.190Z,4.45
2022-11-15T23:06:29.565Z,4.45
2022-11-15T23:08:57.339Z,4.44
2022-11-15T23:11:42.603Z,4.44
2022-11-15T23:14:10.790Z,4.45
2022-11-15T23:16:39.803Z,4.47
2022-11-15T23:19:10.060Z,4.42
2022-11-15T23:21:58.866Z,4.42
2022-11-15T23:24:38.918Z,4.43
2022-11-15T23:27:08.640Z,4.47
2022-11-15T23:29:58.360Z,4.41
2022-11-15T23:32:44.694Z,4.35
2022-11-15T23:35:12.577Z,4.44
2022-11-15T23:37:41.831Z,4.42
2022-11-15T23:40:11.319Z,4.39
2022-11-15T23:42:39.163Z,4.41
2022-11-15T23:45:08.042Z,4.42
2022-11-15T23:47:35.860Z,4.41
2022-11-15T23:50:04.207Z,4.44
2022-11-15T23:52:32.680Z,4.46
2022-11-15T23:55:01.877Z,4.44
2022-11-15T23:57:29.670Z,4.41
